Time;durP1;ratioP1;P1;durP2;ratioP2;P2;SDS_P1;SDS_P2;PMS_P1;PMS_P2;Temp;Humidity;BMP_temperature;BMP_pressure;BME280_temperature;BME280_humidity;BME280_pressure;Samples;Min_cycle;Max_cycle;Signal;HPM_P1;HPM_P2
2022/08/19 00:01:10;;;;;;;13.23;10.68;;;15.20;99.90;;;;;;5015594;28;20046;-89
2022/08/19 00:03:36;;;;;;;16.02;10.60;;;15.20;99.90;;;;;;5014385;28;20069;-88
2022/08/19 00:06:02;;;;;;;13.02;9.82;;;15.20;99.90;;;;;;5028889;28;20029;-90
2022/08/19 00:08:28;;;;;;;11.43;10.23;;;15.10;99.90;;;;;;5021037;28;20064;-91
2022/08/19 00:10:53;;;;;;;12.48;10.85;;;15.20;99.90;;;;;;5028028;28;20050;-87
2022/08/19 00:13:19;;;;;;;11.50;10.00;;;15.10;99.90;;;;;;5025625;28;20053;-87
2022/08/19 00:15:44;;;;;;;15.05;11.88;;;15.10;99.90;;;;;;5015972;28;20045;-87
2022/08/19 00:18:10;;;;;;;14.40;10.57;;;15.10;99.90;;;;;;5015769;28;20120;-88
2022/08/19 00:20:40;;;;;;;14.95;11.45;;;15.00;99.90;;;;;;4980641;28;20057;-89
2022/08/19 00:23:06;;;;;;;12.18;10.57;;;15.00;99.90;;;;;;5014064;28;20124;-88
2022/08/19 00:25:31;;;;;;;14.52;11.75;;;15.00;99.90;;;;;;5013944;28;20104;-89
2022/08/19 00:27:58;;;;;;;14.90;11.63;;;15.00;99.90;;;;;;5013223;28;20042;-88
2022/08/19 00:30:24;;;;;;;16.27;11.75;;;15.00;99.90;;;;;;5013280;28;20053;-87
2022/08/19 00:32:50;;;;;;;13.63;11.35;;;15.00;99.90;;;;;;4997107;28;20446;-87
2022/08/19 00:35:17;;;;;;;16.27;12.18;;;15.00;99.90;;;;;;5014288;28;20497;-88
2022/08/19 00:37:43;;;;;;;14.07;11.02;;;15.00;99.90;;;;;;4996464;28;20085;-86
2022/08/19 00:40:09;;;;;;;15.10;11.30;;;15.00;99.90;;;;;;4997071;28;20038;-88
2022/08/19 00:42:34;;;;;;;15.57;12.35;;;14.90;99.90;;;;;;4996968;28;20042;-88
2022/08/19 00:45:00;;;;;;;15.80;12.10;;;14.90;99.90;;;;;;5018210;28;20076;-88
2022/08/19 00:47:26;;;;;;;16.85;12.20;;;14.80;99.90;;;;;;5032429;28;20042;-87
2022/08/19 00:49:56;;;;;;;19.15;12.60;;;14.80;99.90;;;;;;5031257;28;20107;-87
2022/08/19 00:52:32;;;;;;;16.77;12.45;;;14.80;99.90;;;;;;5014988;28;20080;-87
2022/08/19 00:54:58;;;;;;;32.03;14.10;;;14.70;99.90;;;;;;5009018;28;20089;-87
2022/08/19 00:57:28;;;;;;;17.90;12.43;;;14.70;99.90;;;;;;4983891;28;20046;-86
2022/08/19 00:59:54;;;;;;;17.42;12.43;;;14.70;99.90;;;;;;4986956;28;20108;-86
2022/08/19 01:02:20;;;;;;;16.65;12.93;;;14.70;99.90;;;;;;4975459;28;20053;-87
2022/08/19 01:04:46;;;;;;;16.60;12.80;;;14.70;99.90;;;;;;4998849;28;20048;-90
2022/08/19 01:07:12;;;;;;;20.00;13.70;;;14.70;99.90;;;;;;5020254;28;20069;-89
2022/08/19 01:09:37;;;;;;;17.63;13.57;;;14.60;99.90;;;;;;5024648;28;20068;-86
2022/08/19 01:12:03;;;;;;;21.75;14.07;;;14.60;99.90;;;;;;5014347;28;20125;-88
2022/08/19 01:14:29;;;;;;;16.88;13.30;;;14.60;99.90;;;;;;4996956;28;20124;-86
2022/08/19 01:16:55;;;;;;;16.42;12.93;;;14.60;99.90;;;;;;4997689;28;20053;-87
2022/08/19 01:19:26;;;;;;;17.15;12.65;;;14.50;99.90;;;;;;4997788;28;20049;-87
2022/08/19 01:22:12;;;;;;;15.80;12.93;;;14.50;99.90;;;;;;5029961;28;20045;-87
2022/08/19 01:24:38;;;;;;;18.00;12.88;;;14.50;99.90;;;;;;5012937;28;20084;-87
2022/08/19 01:27:05;;;;;;;15.25;11.80;;;14.50;99.90;;;;;;4996386;28;20052;-86
2022/08/19 01:29:31;;;;;;;21.20;12.75;;;14.40;99.90;;;;;;5012361;28;20093;-88
2022/08/19 01:31:57;;;;;;;15.55;12.27;;;14.40;99.90;;;;;;5014374;28;20103;-86
2022/08/19 01:34:23;;;;;;;16.10;13.02;;;14.40;99.90;;;;;;5013388;28;20042;-87
2022/08/19 01:36:49;;;;;;;16.98;12.55;;;14.40;99.90;;;;;;5037855;28;20030;-91
2022/08/19 01:39:17;;;;;;;18.77;12.25;;;14.40;99.90;;;;;;5036361;28;20030;-90
2022/08/19 01:41:43;;;;;;;14.40;11.80;;;14.30;99.90;;;;;;5044441;28;20058;-88
2022/08/19 01:44:08;;;;;;;18.52;11.88;;;14.30;99.90;;;;;;5023170;28;20068;-88
2022/08/19 01:46:34;;;;;;;17.63;13.02;;;14.30;99.90;;;;;;4999250;28;20054;-88
2022/08/19 01:49:00;;;;;;;20.73;12.18;;;14.30;99.90;;;;;;4980601;28;20042;-87
2022/08/19 01:51:26;;;;;;;15.50;12.15;;;14.30;99.90;;;;;;4984907;28;20041;-88
2022/08/19 01:53:52;;;;;;;17.92;12.68;;;14.30;99.90;;;;;;4997634;28;20050;-87
2022/08/19 01:56:18;;;;;;;17.58;12.68;;;14.30;99.90;;;;;;5033385;28;20073;-88
2022/08/19 01:58:50;;;;;;;16.38;12.25;;;14.30;99.90;;;;;;5016249;28;20092;-88
2022/08/19 02:01:16;;;;;;;17.33;12.15;;;14.30;99.90;;;;;;4984352;28;20135;-86
2022/08/19 02:03:42;;;;;;;16.58;12.68;;;14.30;99.90;;;;;;5015595;28;20038;-87
2022/08/19 02:06:07;;;;;;;17.98;12.52;;;14.30;99.90;;;;;;5016525;28;20496;-86
2022/08/19 02:08:35;;;;;;;16.88;12.18;;;14.30;99.90;;;;;;5015575;28;20049;-87
2022/08/19 02:11:00;;;;;;;18.85;12.98;;;14.30;99.90;;;;;;4984079;28;20084;-87
2022/08/19 02:13:26;;;;;;;20.95;14.32;;;14.30;99.90;;;;;;4983809;28;20060;-87
2022/08/19 02:15:52;;;;;;;19.75;13.20;;;14.30;99.90;;;;;;4999393;28;20042;-87
2022/08/19 02:18:17;;;;;;;17.25;12.90;;;14.30;99.90;;;;;;5032317;28;20034;-87
2022/08/19 02:20:46;;;;;;;17.75;13.18;;;14.30;99.90;;;;;;5016711;28;20100;-87
2022/08/19 02:23:12;;;;;;;18.08;13.43;;;14.30;99.90;;;;;;5000917;28;20128;-86
2022/08/19 02:25:38;;;;;;;20.15;13.23;;;14.30;99.90;;;;;;4990185;28;20076;-86
2022/08/19 02:28:04;;;;;;;17.15;13.80;;;14.30;99.90;;;;;;5031821;28;20054;-89
2022/08/19 02:30:30;;;;;;;19.60;14.05;;;14.30;99.90;;;;;;5036241;28;20099;-87
2022/08/19 02:32:55;;;;;;;19.80;13.35;;;14.20;99.90;;;;;;4986998;28;20076;-86
2022/08/19 02:35:22;;;;;;;18.60;13.38;;;14.20;99.90;;;;;;5016374;28;20149;-87
2022/08/19 02:38:29;;;;;;;18.30;13.10;;;14.30;99.90;;;;;;4999458;28;20085;-86
2022/08/19 02:40:36;;;;;;;24.95;14.68;;;14.20;99.90;;;;;;5010278;28;20050;-87
2022/08/19 02:43:07;;;;;;;20.83;13.93;;;14.30;99.90;;;;;;5015647;28;20054;-87
2022/08/19 02:45:37;;;;;;;25.85;15.20;;;14.20;99.90;;;;;;4983334;28;20042;-88
2022/08/19 02:48:03;;;;;;;25.08;14.90;;;14.20;99.90;;;;;;5015700;28;20046;-86
2022/08/19 02:50:28;;;;;;;21.33;14.45;;;14.20;99.90;;;;;;5015298;28;20050;-87
2022/08/19 02:52:54;;;;;;;19.85;13.38;;;14.20;99.90;;;;;;4998216;28;20381;-87
2022/08/19 02:55:20;;;;;;;28.90;15.57;;;14.20;99.90;;;;;;5016702;28;20089;-87
2022/08/19 02:57:47;;;;;;;24.80;15.27;;;14.30;99.90;;;;;;5025853;28;20041;-86
2022/08/19 03:00:13;;;;;;;24.52;16.23;;;14.20;99.90;;;;;;5052859;28;20030;-87
2022/08/19 03:02:39;;;;;;;21.20;14.77;;;14.20;99.90;;;;;;5016251;28;20042;-86
2022/08/19 03:05:05;;;;;;;20.80;14.55;;;14.20;99.90;;;;;;5025668;28;20045;-86
2022/08/19 03:07:31;;;;;;;22.67;15.05;;;14.20;99.90;;;;;;5020582;28;20060;-89
2022/08/19 03:09:57;;;;;;;21.58;14.77;;;14.20;99.90;;;;;;5038498;28;20050;-90
2022/08/19 03:12:23;;;;;;;27.20;15.45;;;14.10;99.90;;;;;;5027394;28;20065;-86
2022/08/19 03:14:48;;;;;;;23.48;14.35;;;14.20;99.90;;;;;;5024218;28;20077;-86
2022/08/19 03:17:14;;;;;;;23.92;14.38;;;14.10;99.90;;;;;;4999380;28;20080;-87
2022/08/19 03:19:40;;;;;;;25.80;14.38;;;14.10;99.90;;;;;;4998555;28;20056;-87
2022/08/19 03:22:07;;;;;;;25.60;15.38;;;14.10;99.90;;;;;;5014701;28;20073;-87
2022/08/19 03:24:33;;;;;;;24.60;14.88;;;14.10;99.90;;;;;;5014590;28;20135;-89
2022/08/19 03:26:59;;;;;;;22.23;14.45;;;14.10;99.90;;;;;;5015424;28;20136;-87
2022/08/19 03:29:26;;;;;;;24.15;14.82;;;14.10;99.90;;;;;;5014251;28;20050;-86
2022/08/19 03:31:52;;;;;;;22.42;13.57;;;14.00;99.90;;;;;;4997956;28;20193;-87
2022/08/19 03:34:25;;;;;;;24.30;14.35;;;14.00;99.90;;;;;;5015437;28;20042;-87
2022/08/19 03:36:51;;;;;;;23.35;14.82;;;14.00;99.90;;;;;;5014445;28;20045;-86
2022/08/19 03:39:17;;;;;;;21.85;13.85;;;14.00;99.90;;;;;;5014671;28;20112;-86
2022/08/19 03:41:43;;;;;;;22.10;13.68;;;14.00;99.90;;;;;;5014126;28;20124;-87
2022/08/19 03:44:09;;;;;;;24.88;14.23;;;14.00;99.90;;;;;;4998091;28;20053;-86
2022/08/19 03:46:36;;;;;;;22.30;13.45;;;14.00;99.90;;;;;;4982131;28;20038;-86
2022/08/19 03:49:04;;;;;;;21.13;13.40;;;13.90;99.90;;;;;;5034666;28;20081;-88
2022/08/19 03:51:33;;;;;;;21.77;14.23;;;13.90;99.90;;;;;;4991789;28;20077;-88
2022/08/19 03:54:00;;;;;;;22.75;14.43;;;13.90;99.90;;;;;;5021118;28;20053;-87
2022/08/19 03:56:27;;;;;;;23.05;14.45;;;14.00;99.90;;;;;;5027983;28;20046;-87
2022/08/19 03:58:54;;;;;;;22.30;13.77;;;13.90;99.90;;;;;;4981686;28;20057;-86
2022/08/19 04:01:21;;;;;;;26.33;14.85;;;13.90;99.90;;;;;;5013796;28;20544;-85
2022/08/19 04:03:47;;;;;;;25.15;14.68;;;13.90;99.90;;;;;;4965295;28;20049;-86
2022/08/19 04:06:14;;;;;;;23.30;14.40;;;13.90;99.90;;;;;;4981340;28;20057;-87
2022/08/19 04:08:41;;;;;;;27.92;16.13;;;13.90;99.90;;;;;;4997650;28;20366;-86
2022/08/19 04:11:14;;;;;;;27.92;15.10;;;14.00;99.90;;;;;;5014003;28;20104;-86
2022/08/19 04:13:44;;;;;;;27.45;14.15;;;14.00;99.90;;;;;;4998366;28;20046;-89
2022/08/19 04:16:10;;;;;;;26.92;14.48;;;14.00;99.90;;;;;;4997222;28;20508;-86
2022/08/19 04:18:37;;;;;;;26.48;14.57;;;14.10;99.90;;;;;;5015758;28;20038;-86
2022/08/19 04:21:02;;;;;;;32.83;16.15;;;14.00;99.90;;;;;;4985919;28;20116;-86
2022/08/19 04:23:28;;;;;;;26.33;14.63;;;14.00;99.90;;;;;;5001298;28;20073;-87
2022/08/19 04:25:54;;;;;;;27.00;15.25;;;14.10;99.90;;;;;;4998639;28;20033;-85
2022/08/19 04:28:19;;;;;;;28.10;14.77;;;14.10;99.90;;;;;;5030738;28;20037;-86
2022/08/19 04:30:49;;;;;;;24.77;14.50;;;14.10;99.90;;;;;;5029939;28;20068;-86
2022/08/19 04:33:16;;;;;;;27.73;15.90;;;14.00;99.90;;;;;;5015994;28;20077;-87
2022/08/19 04:35:43;;;;;;;28.70;14.65;;;14.00;99.90;;;;;;5029341;28;20394;-88
2022/08/19 04:38:09;;;;;;;29.38;15.40;;;14.10;99.90;;;;;;5020811;28;20049;-89
2022/08/19 04:43:27;;;;;;;30.33;16.02;;;14.20;99.90;;;;;;5009482;28;20101;-87
2022/08/19 04:45:53;;;;;;;29.63;15.35;;;14.20;99.90;;;;;;5015741;28;20478;-84
2022/08/19 04:48:25;;;;;;;29.63;16.15;;;14.20;99.90;;;;;;5013916;28;20124;-86
2022/08/19 04:50:53;;;;;;;29.15;16.70;;;14.20;99.90;;;;;;5013010;28;20545;-86
2022/08/19 04:53:19;;;;;;;29.20;15.32;;;14.20;99.90;;;;;;4997209;28;20089;-85
2022/08/19 04:55:44;;;;;;;29.92;16.38;;;14.30;99.90;;;;;;5013600;28;20427;-86
2022/08/19 04:58:10;;;;;;;31.58;16.45;;;14.40;99.90;;;;;;5012860;28;20038;-87
2022/08/19 05:00:38;;;;;;;30.90;15.57;;;14.50;99.90;;;;;;4996856;28;20050;-88
2022/08/19 05:03:04;;;;;;;30.73;15.88;;;14.60;99.90;;;;;;4996734;28;20037;-87
2022/08/19 05:05:30;;;;;;;34.60;16.80;;;14.60;99.90;;;;;;5013971;28;20045;-87
2022/08/19 05:07:56;;;;;;;30.40;16.45;;;14.60;99.90;;;;;;4996260;28;20056;-87
2022/08/19 05:10:22;;;;;;;31.15;16.92;;;14.70;99.90;;;;;;4996769;28;20033;-87
2022/08/19 05:12:48;;;;;;;30.75;16.15;;;14.70;99.90;;;;;;5018855;28;20080;-86
2022/08/19 05:15:14;;;;;;;27.90;15.90;;;14.80;99.90;;;;;;5030036;28;20101;-88
2022/08/19 05:22:31;;;;;;;30.40;16.05;;;14.80;99.90;;;;;;5020466;28;20026;-88
2022/08/19 05:23:11;;;;;;;25.30;15.77;;;15.50;99.90;;;;;;5015184;28;20046;-86
2022/08/19 05:25:39;;;;;;;24.73;15.75;;;16.00;99.90;;;;;;5013749;28;20045;-86
2022/08/19 05:28:04;;;;;;;21.88;14.10;;;16.60;99.90;;;;;;5010991;28;20116;-86
2022/08/19 05:30:30;;;;;;;17.70;13.30;;;16.90;99.90;;;;;;5014813;28;20466;-88
2022/08/19 05:32:56;;;;;;;19.65;13.38;;;17.10;99.90;;;;;;5015464;28;20049;-87
2022/08/19 05:35:23;;;;;;;15.35;13.07;;;17.20;99.90;;;;;;4981257;28;20461;-88
2022/08/19 05:37:49;;;;;;;16.02;12.77;;;17.60;99.90;;;;;;4996098;28;20085;-87
2022/08/19 05:40:14;;;;;;;14.18;11.75;;;17.80;99.90;;;;;;5014300;28;20087;-86
2022/08/19 05:42:40;;;;;;;16.63;12.50;;;18.40;99.90;;;;;;4981700;28;20054;-87
2022/08/19 05:45:07;;;;;;;13.95;12.00;;;18.90;99.90;;;;;;5013192;28;20111;-87
2022/08/19 05:47:32;;;;;;;11.85;10.65;;;19.60;99.90;;;;;;5000601;28;20056;-87
2022/08/19 05:49:58;;;;;;;18.65;12.00;;;20.20;99.90;;;;;;5028560;28;20054;-87
2022/08/19 05:52:27;;;;;;;13.13;11.32;;;20.90;99.90;;;;;;5013157;28;20103;-86
2022/08/19 05:54:55;;;;;;;13.23;10.88;;;21.40;99.90;;;;;;5029672;28;20450;-87
2022/08/19 05:57:20;;;;;;;11.80;10.35;;;21.80;99.90;;;;;;4995976;28;20188;-86
2022/08/19 05:59:48;;;;;;;13.15;10.80;;;22.30;99.90;;;;;;5012882;28;20144;-87
2022/08/19 06:02:13;;;;;;;12.10;10.43;;;22.60;99.90;;;;;;4996949;28;20046;-89
2022/08/19 06:04:42;;;;;;;11.80;10.60;;;22.90;99.90;;;;;;5017299;28;20049;-92
2022/08/19 06:07:08;;;;;;;11.48;10.30;;;23.40;99.90;;;;;;5035330;28;20034;-91
2022/08/19 06:09:33;;;;;;;12.10;10.52;;;23.60;99.90;;;;;;5035066;28;20042;-89
2022/08/19 06:11:59;;;;;;;12.38;10.30;;;23.90;99.90;;;;;;5032807;28;20049;-91
2022/08/19 06:14:29;;;;;;;10.98;9.77;;;23.90;99.90;;;;;;5004932;28;20495;-88
2022/08/19 06:16:55;;;;;;;10.13;8.68;;;24.20;99.90;;;;;;5013825;28;20042;-86
2022/08/19 06:19:24;;;;;;;10.15;9.15;;;24.10;99.90;;;;;;5012912;28;20042;-88
2022/08/19 06:21:50;;;;;;;10.02;8.98;;;23.90;99.90;;;;;;4982819;28;20050;-89
2022/08/19 06:24:22;;;;;;;10.63;9.43;;;24.00;99.90;;;;;;4980200;28;20073;-86
2022/08/19 06:26:48;;;;;;;9.27;8.30;;;24.20;99.90;;;;;;4998185;28;20049;-88
2022/08/19 06:29:15;;;;;;;9.60;8.35;;;24.90;99.90;;;;;;4996187;28;20113;-88
2022/08/19 06:31:45;;;;;;;8.70;7.88;;;25.00;99.90;;;;;;4996846;28;20378;-87
2022/08/19 06:34:11;;;;;;;9.75;8.07;;;25.00;99.90;;;;;;4999025;28;20085;-89
2022/08/19 06:36:45;;;;;;;8.20;7.50;;;25.20;99.90;;;;;;5019188;28;20038;-90
2022/08/19 06:39:16;;;;;;;9.40;7.10;;;25.20;99.90;;;;;;5020011;28;20026;-91
2022/08/19 06:41:43;;;;;;;9.27;7.15;;;25.10;99.90;;;;;;5039817;28;20097;-90
2022/08/19 06:44:10;;;;;;;7.85;7.07;;;25.30;99.90;;;;;;5007316;28;20377;-87
2022/08/19 06:46:36;;;;;;;7.43;6.47;;;25.40;99.90;;;;;;4985110;28;20133;-88
2022/08/19 06:49:02;;;;;;;8.07;6.57;;;25.50;99.90;;;;;;4984826;28;20118;-88
2022/08/19 06:51:28;;;;;;;8.57;7.15;;;26.00;99.90;;;;;;5001191;28;20389;-88
2022/08/19 06:53:54;;;;;;;7.25;6.60;;;26.00;99.90;;;;;;5017212;28;20049;-87
2022/08/19 06:56:30;;;;;;;6.63;5.97;;;26.40;99.90;;;;;;5018160;28;20080;-88
2022/08/19 06:58:57;;;;;;;8.50;6.20;;;26.60;99.90;;;;;;5003121;28;20060;-88
2022/08/19 07:01:23;;;;;;;7.13;6.38;;;26.50;99.90;;;;;;5018159;28;20053;-86
2022/08/19 07:03:48;;;;;;;7.63;6.30;;;26.70;99.90;;;;;;5000553;28;20188;-87
2022/08/19 07:06:17;;;;;;;7.53;6.78;;;26.70;99.90;;;;;;5001847;28;20504;-87
2022/08/19 07:08:44;;;;;;;8.60;6.88;;;26.40;99.90;;;;;;5001631;28;20434;-87
2022/08/19 07:11:12;;;;;;;8.30;6.93;;;26.60;99.90;;;;;;5002004;28;20046;-89
2022/08/19 07:13:38;;;;;;;7.00;6.30;;;26.70;99.90;;;;;;5000104;28;20037;-88
2022/08/19 07:16:08;;;;;;;7.70;6.40;;;27.20;99.90;;;;;;5015500;28;20450;-88
2022/08/19 07:18:34;;;;;;;7.65;6.85;;;27.40;99.90;;;;;;4983498;28;20045;-88
2022/08/19 07:21:07;;;;;;;7.38;6.68;;;27.60;99.90;;;;;;5017332;28;20042;-87
2022/08/19 07:23:33;;;;;;;7.63;6.70;;;27.50;99.90;;;;;;5000978;28;20046;-88
2022/08/19 07:26:05;;;;;;;8.15;6.88;;;27.90;99.90;;;;;;5015810;28;20118;-88
2022/08/19 07:28:39;;;;;;;7.10;6.50;;;27.90;99.90;;;;;;5015835;28;20057;-87
2022/08/19 07:31:06;;;;;;;7.60;6.90;;;28.30;99.90;;;;;;5015893;28;20401;-87
2022/08/19 07:33:32;;;;;;;7.75;7.13;;;27.70;99.90;;;;;;4998376;28;20053;-88
2022/08/19 07:35:58;;;;;;;9.77;6.97;;;28.10;99.90;;;;;;4997741;28;20088;-88
2022/08/19 07:38:24;;;;;;;7.75;7.05;;;28.00;99.90;;;;;;5012803;28;20050;-87
2022/08/19 07:40:51;;;;;;;8.68;7.25;;;28.10;99.90;;;;;;5012816;28;20052;-86
2022/08/19 07:43:22;;;;;;;7.82;7.13;;;28.20;99.90;;;;;;5012956;28;20058;-86
2022/08/19 07:45:48;;;;;;;8.32;7.53;;;28.50;99.90;;;;;;4982844;28;20052;-87
2022/08/19 07:48:14;;;;;;;7.68;6.97;;;28.60;99.90;;;;;;5012916;28;20037;-89
2022/08/19 07:50:39;;;;;;;7.60;6.80;;;28.80;99.90;;;;;;4995899;28;20056;-87
2022/08/19 07:53:05;;;;;;;7.97;7.18;;;29.10;99.90;;;;;;5013081;28;20157;-87
2022/08/19 07:55:31;;;;;;;8.07;7.38;;;28.40;99.90;;;;;;5014872;28;20492;-88
2022/08/19 07:57:57;;;;;;;7.63;6.80;;;28.20;99.90;;;;;;5012854;28;20048;-88
2022/08/19 08:00:22;;;;;;;10.75;7.13;;;28.50;99.90;;;;;;5000857;28;20061;-87
2022/08/19 08:02:50;;;;;;;7.82;7.10;;;28.50;99.90;;;;;;5000811;28;20077;-88
2022/08/19 08:10:44;;;;;;;7.57;6.90;;;29.20;99.90;;;;;;5043359;28;20045;-84
2022/08/19 08:13:10;;;;;;;6.53;5.88;;;29.20;99.90;;;;;;5017024;28;20439;-84
2022/08/19 08:15:38;;;;;;;7.03;6.13;;;28.80;99.90;;;;;;5032224;28;20049;-84
2022/08/19 08:18:03;;;;;;;7.20;6.50;;;29.20;99.90;;;;;;5031795;28;20072;-84
2022/08/19 08:20:29;;;;;;;7.80;6.60;;;29.00;99.90;;;;;;5014433;28;20041;-84
2022/08/19 08:25:39;;;;;;;7.70;7.05;;;29.40;99.90;;;;;;5030900;28;20076;-84
2022/08/19 08:28:05;;;;;;;8.10;7.40;;;29.10;99.90;;;;;;5031064;28;20041;-83
2022/08/19 08:30:32;;;;;;;9.13;7.57;;;29.30;99.90;;;;;;5030430;28;20552;-83
2022/08/19 08:32:58;;;;;;;10.45;7.00;;;29.60;99.90;;;;;;5014636;28;20095;-83
2022/08/19 08:35:24;;;;;;;7.30;6.70;;;29.90;99.90;;;;;;5014170;28;20092;-83
2022/08/19 08:37:51;;;;;;;6.25;5.50;;;29.70;99.90;;;;;;5031825;28;20053;-83
2022/08/19 08:40:28;;;;;;;6.28;5.70;;;30.20;99.90;;;;;;5030246;28;20037;-83
2022/08/19 08:43:04;;;;;;;6.28;4.93;;;30.50;99.90;;;;;;5032330;28;20140;-84
2022/08/19 08:45:30;;;;;;;7.00;5.20;;;30.40;99.90;;;;;;5030363;28;20103;-84
2022/08/19 08:47:57;;;;;;;5.57;4.22;;;30.60;99.90;;;;;;5014081;28;20480;-82
2022/08/19 08:50:35;;;;;;;4.63;4.22;;;30.10;99.90;;;;;;5013751;28;20097;-83
2022/08/19 08:53:01;;;;;;;7.07;4.68;;;30.30;99.90;;;;;;4982021;28;20092;-83
2022/08/19 08:55:28;;;;;;;5.00;4.57;;;29.70;99.90;;;;;;5030165;28;20081;-84
2022/08/19 08:58:06;;;;;;;5.28;4.63;;;29.70;99.90;;;;;;5031727;28;20091;-83
2022/08/19 09:00:40;;;;;;;5.93;5.30;;;29.90;99.90;;;;;;5014614;28;20048;-82
2022/08/19 09:03:25;;;;;;;5.53;4.55;;;29.80;99.90;;;;;;4997939;28;20044;-83
2022/08/19 09:05:54;;;;;;;4.30;3.90;;;30.20;99.90;;;;;;5013960;28;20119;-82
2022/08/19 09:08:30;;;;;;;4.97;4.57;;;31.30;99.60;;;;;;5030465;28;20072;-83
2022/08/19 09:10:57;;;;;;;4.70;4.30;;;30.80;99.30;;;;;;4998294;28;20053;-82
2022/08/19 09:13:49;;;;;;;5.45;4.82;;;31.00;99.70;;;;;;5013537;28;20412;-83
2022/08/19 09:16:18;;;;;;;5.93;5.43;;;31.00;98.90;;;;;;5031778;28;20449;-82
2022/08/19 09:18:46;;;;;;;7.30;6.10;;;31.00;99.30;;;;;;5029815;28;20033;-82
2022/08/19 09:21:13;;;;;;;7.35;6.07;;;31.10;99.60;;;;;;5031268;28;20439;-82
2022/08/19 09:23:38;;;;;;;12.40;6.45;;;31.30;99.50;;;;;;5013472;28;20104;-82
2022/08/19 09:26:15;;;;;;;6.90;6.15;;;31.70;99.70;;;;;;5013652;28;20050;-82
2022/08/19 09:28:43;;;;;;;7.15;6.47;;;31.60;99.40;;;;;;4997302;28;20389;-82
2022/08/19 09:31:10;;;;;;;6.72;6.05;;;30.80;99.60;;;;;;5013833;28;20538;-83
2022/08/19 09:33:36;;;;;;;7.40;6.70;;;31.20;99.00;;;;;;5029640;28;20048;-82
2022/08/19 09:36:07;;;;;;;7.93;7.20;;;31.30;99.10;;;;;;5031237;28;20046;-84
2022/08/19 09:38:33;;;;;;;8.35;7.55;;;31.70;99.30;;;;;;5029562;28;20452;-83
2022/08/19 09:41:13;;;;;;;8.70;8.00;;;31.20;99.00;;;;;;5013677;28;20137;-83
2022/08/19 09:43:39;;;;;;;8.45;7.63;;;30.90;98.80;;;;;;5013529;28;20076;-83
2022/08/19 09:46:06;;;;;;;7.40;6.80;;;30.70;99.90;;;;;;5031085;28;20049;-85
2022/08/19 09:48:41;;;;;;;8.35;7.35;;;31.40;98.70;;;;;;5029298;28;20045;-82
2022/08/19 09:51:09;;;;;;;8.52;7.72;;;31.30;99.10;;;;;;5029509;28;20559;-81
2022/08/19 09:53:35;;;;;;;8.73;7.82;;;31.00;98.60;;;;;;5029287;28;20500;-82
2022/08/19 09:56:01;;;;;;;8.00;7.30;;;31.60;99.00;;;;;;5013491;28;20227;-82
2022/08/19 09:58:29;;;;;;;9.85;8.23;;;31.90;98.70;;;;;;5029377;28;20393;-82
2022/08/19 10:00:55;;;;;;;10.02;9.02;;;31.10;97.60;;;;;;5030996;28;20117;-82
2022/08/19 10:03:20;;;;;;;10.57;9.57;;;31.40;98.90;;;;;;5029923;28;20049;-83
2022/08/19 10:05:49;;;;;;;8.82;8.00;;;31.50;98.50;;;;;;5029812;28;20052;-92
2022/08/19 10:08:26;;;;;;;10.07;8.82;;;30.80;98.80;;;;;;5034447;28;20037;-93
2022/08/19 10:10:52;;;;;;;9.40;8.35;;;31.30;99.20;;;;;;5015273;28;20057;-91
2022/08/19 10:13:22;;;;;;;9.73;8.82;;;31.10;99.00;;;;;;5015979;28;20041;-91
2022/08/19 10:15:50;;;;;;;8.43;7.63;;;30.50;98.70;;;;;;5019484;28;20046;-93
2022/08/19 10:18:17;;;;;;;8.95;8.07;;;31.00;99.10;;;;;;5020682;28;20045;-90
2022/08/19 10:20:45;;;;;;;7.70;6.93;;;31.30;99.00;;;;;;5018748;28;20382;-90
2022/08/19 10:23:11;;;;;;;8.25;7.45;;;31.80;98.70;;;;;;5018395;28;20096;-89
2022/08/19 10:25:37;;;;;;;7.28;6.68;;;31.60;98.30;;;;;;5034021;28;20053;-90
2022/08/19 10:28:04;;;;;;;8.25;7.50;;;31.40;98.00;;;;;;5035278;28;20048;-92
2022/08/19 10:30:29;;;;;;;8.75;7.85;;;31.10;97.10;;;;;;5002782;28;20053;-91
2022/08/19 10:32:55;;;;;;;7.47;6.03;;;30.70;98.30;;;;;;5003773;28;20385;-90
2022/08/19 10:35:21;;;;;;;8.15;7.35;;;30.70;98.30;;;;;;5019426;28;20037;-93
2022/08/19 10:37:46;;;;;;;7.05;6.35;;;31.10;98.00;;;;;;5035275;28;20057;-89
2022/08/19 10:40:12;;;;;;;8.13;7.43;;;31.30;98.90;;;;;;5034762;28;20454;-90
2022/08/19 10:42:38;;;;;;;7.22;6.53;;;30.80;97.80;;;;;;5033859;28;20543;-94
2022/08/19 10:45:05;;;;;;;7.90;7.10;;;31.20;98.50;;;;;;5017609;28;20042;-91
2022/08/19 10:47:32;;;;;;;7.95;7.22;;;30.50;98.50;;;;;;5034830;28;20071;-92
2022/08/19 10:52:44;;;;;;;6.68;6.07;;;30.40;98.80;;;;;;5019365;28;20161;-89
2022/08/19 10:57:53;;;;;;;7.97;6.90;;;29.70;99.20;;;;;;5020193;28;20067;-89
2022/08/19 11:00:20;;;;;;;9.07;7.90;;;30.70;99.00;;;;;;5017930;28;20038;-93
2022/08/19 11:02:46;;;;;;;7.65;6.97;;;30.80;98.60;;;;;;5019364;28;20115;-93
2022/08/19 11:05:12;;;;;;;9.43;8.63;;;30.20;98.80;;;;;;4985669;28;20075;-92
2022/08/19 11:07:39;;;;;;;7.72;7.05;;;30.30;99.30;;;;;;5016983;28;20060;-92
2022/08/19 11:10:05;;;;;;;7.90;7.20;;;29.30;98.80;;;;;;5018576;28;20106;-93
2022/08/19 11:12:30;;;;;;;7.65;6.95;;;29.70;99.60;;;;;;5019104;28;20052;-93
2022/08/19 11:14:56;;;;;;;7.25;6.55;;;29.30;99.30;;;;;;5033539;28;20458;-93
2022/08/19 11:17:23;;;;;;;7.03;6.20;;;29.10;99.20;;;;;;5017153;28;20076;-93
2022/08/19 11:19:49;;;;;;;6.85;6.22;;;29.20;99.90;;;;;;5034292;28;20370;-92
2022/08/19 11:22:15;;;;;;;7.03;6.43;;;28.70;99.50;;;;;;5036262;28;20524;-92
2022/08/19 11:24:41;;;;;;;6.65;5.95;;;28.40;99.90;;;;;;5034290;28;20049;-93
2022/08/19 11:27:08;;;;;;;7.63;6.93;;;28.00;99.90;;;;;;5019152;28;20057;-92
2022/08/19 11:29:35;;;;;;;7.45;6.82;;;27.50;99.90;;;;;;5034216;28;20452;-92
2022/08/19 11:32:06;;;;;;;7.65;6.78;;;27.60;99.90;;;;;;5017475;28;20481;-90
2022/08/19 11:34:32;;;;;;;8.57;7.70;;;27.50;99.90;;;;;;5017809;28;20140;-91
2022/08/19 11:36:58;;;;;;;7.40;6.70;;;27.40;99.90;;;;;;5033300;28;20477;-93
2022/08/19 11:39:24;;;;;;;7.63;6.82;;;27.90;99.90;;;;;;5033113;28;20092;-92
2022/08/19 11:41:50;;;;;;;7.45;6.60;;;28.10;99.90;;;;;;5032848;28;20092;-92
2022/08/19 11:44:16;;;;;;;8.48;7.68;;;28.00;99.90;;;;;;5001706;28;20077;-92
2022/08/19 11:46:45;;;;;;;8.15;7.45;;;28.00;99.90;;;;;;5002659;28;20100;-96
2022/08/19 11:49:10;;;;;;;7.43;6.68;;;28.00;99.90;;;;;;5001156;28;20049;-90
2022/08/19 11:51:36;;;;;;;8.25;6.60;;;28.60;99.90;;;;;;5016502;28;20060;-92
2022/08/19 11:54:04;;;;;;;8.02;7.32;;;29.00;99.90;;;;;;5038920;28;20507;-91
2022/08/19 11:56:30;;;;;;;7.70;6.93;;;28.60;99.90;;;;;;5022237;28;20053;-91
2022/08/19 11:58:56;;;;;;;7.93;7.20;;;28.70;99.90;;;;;;5037496;28;20056;-90
2022/08/19 12:01:23;;;;;;;8.82;6.80;;;28.50;99.90;;;;;;5040957;28;20041;-92
2022/08/19 12:03:50;;;;;;;6.70;6.10;;;28.80;99.90;;;;;;5038265;28;20055;-92
2022/08/19 12:06:17;;;;;;;6.53;5.95;;;29.20;99.40;;;;;;5024180;28;20041;-91
2022/08/19 12:08:43;;;;;;;6.97;6.47;;;29.20;99.40;;;;;;5056497;28;20072;-90
2022/08/19 12:11:13;;;;;;;8.25;7.45;;;29.30;99.40;;;;;;5011563;28;20049;-93
2022/08/19 12:13:39;;;;;;;8.63;7.80;;;29.30;98.80;;;;;;5006924;28;20049;-92
2022/08/19 12:16:12;;;;;;;6.63;6.10;;;29.40;99.50;;;;;;5003330;28;20059;-95
2022/08/19 12:18:38;;;;;;;;;;;29.50;99.50;;;;;;5019180;28;20109;-91
2022/08/19 12:21:09;;;;;;;7.10;6.40;;;29.50;98.70;;;;;;5003285;28;20374;-93
2022/08/19 12:23:37;;;;;;;6.85;6.35;;;29.40;98.60;;;;;;5021572;28;20489;-90
2022/08/19 12:26:03;;;;;;;7.22;6.53;;;29.20;98.30;;;;;;5018777;28;20061;-93
2022/08/19 12:28:32;;;;;;;9.85;8.85;;;29.00;99.30;;;;;;5000816;28;20042;-94
2022/08/19 12:31:00;;;;;;;7.55;6.85;;;28.70;99.50;;;;;;5001011;28;20096;-92
2022/08/19 12:33:31;;;;;;;8.98;8.15;;;29.30;99.50;;;;;;5000830;28;20057;-94
2022/08/19 12:36:01;;;;;;;8.23;7.43;;;29.40;99.50;;;;;;5016519;28;20497;-91
2022/08/19 12:38:28;;;;;;;8.15;7.45;;;29.20;99.90;;;;;;5000896;28;20119;-92
2022/08/19 12:40:59;;;;;;;8.63;7.93;;;29.00;99.90;;;;;;4988425;28;20101;-95
2022/08/19 12:43:26;;;;;;;9.90;8.90;;;28.30;99.90;;;;;;5019769;28;20053;-93
2022/08/19 12:45:51;;;;;;;9.60;8.80;;;28.60;99.90;;;;;;5018470;28;20061;-93
2022/08/19 12:48:25;;;;;;;9.23;8.32;;;28.10;99.90;;;;;;4987296;28;20049;-93
2022/08/19 12:50:54;;;;;;;;;;;28.10;99.90;;;;;;5006797;28;20049;-90
2022/08/19 12:53:19;;;;;;;10.43;9.02;;;27.80;99.90;;;;;;5023714;28;19921;-94
2022/08/19 12:55:45;;;;;;;9.63;8.65;;;27.70;99.90;;;;;;5002570;28;20064;-95
2022/08/19 12:58:13;;;;;;;10.20;9.18;;;28.00;99.90;;;;;;5017615;28;20111;-94